Weather at Chania International Airport

Public forecast

Using degrees Celsius for public forecast. Weather courtesy of forecast.io.

Current aviation weather report (METAR) for Chania International Airport

2024/05/30 22:50 (retrieved 34 minutes ago)

LGSA 302250Z 07005KT 9999 SCT006 SCT016 19/19 Q1012

Aviation forecast (TAF) for Chania International Airport

2024/05/30 18:16 (retrieved 5 hours ago)

TAF LGSA 301700Z 3018/3118 VRB05KT 9999 FEW020 BECMG 3107/3109 09010KT